createdAt,value
2019-03-17T00:00:39.778Z,97.90
2019-03-17T00:03:06.664Z,97.80
2019-03-17T00:05:33.651Z,97.70
2019-03-17T00:08:00.503Z,97.60
2019-03-17T00:10:27.376Z,97.50
2019-03-17T00:12:54.176Z,97.40
2019-03-17T00:15:20.958Z,97.30
2019-03-17T00:17:47.840Z,97.30
2019-03-17T00:20:14.846Z,97.20
2019-03-17T00:22:41.620Z,97.30
2019-03-17T00:25:10.086Z,97.20
2019-03-17T00:27:37.392Z,97.40
2019-03-17T00:30:06.288Z,97.50
2019-03-17T00:32:36.148Z,97.70
2019-03-17T00:35:08.960Z,97.90
2019-03-17T00:37:39.775Z,97.70
2019-03-17T00:40:10.549Z,97.70
2019-03-17T00:42:37.459Z,97.50
2019-03-17T00:45:05.343Z,97.60
2019-03-17T00:47:32.305Z,97.40
2019-03-17T00:49:59.097Z,97.40
2019-03-17T00:52:25.992Z,97.40
2019-03-17T00:54:52.833Z,97.00
2019-03-17T00:57:19.709Z,96.90
2019-03-17T00:59:47.286Z,96.80
2019-03-17T01:02:14.057Z,97.40
2019-03-17T01:04:40.838Z,97.60
2019-03-17T01:07:07.728Z,97.80
2019-03-17T01:09:34.488Z,98.30
2019-03-17T01:12:01.576Z,98.40
2019-03-17T01:14:28.355Z,98.60
2019-03-17T01:16:55.140Z,98.40
2019-03-17T01:19:21.988Z,99.00
2019-03-17T01:21:48.780Z,98.90
2019-03-17T01:24:15.757Z,99.30
2019-03-17T01:26:42.546Z,99.80
2019-03-17T01:29:09.300Z,99.30
2019-03-17T01:31:36.172Z,99.50
2019-03-17T01:34:03.079Z,98.50
2019-03-17T01:36:29.882Z,97.40
2019-03-17T01:38:56.737Z,96.10
2019-03-17T01:41:23.505Z,94.70
2019-03-17T01:43:50.276Z,93.40
2019-03-17T01:46:17.062Z,92.00
2019-03-17T01:48:43.926Z,91.20
2019-03-17T01:51:10.701Z,91.40
2019-03-17T01:53:37.486Z,92.00
2019-03-17T01:56:04.249Z,92.60
2019-03-17T01:58:31.040Z,93.20
2019-03-17T02:00:57.917Z,93.70
2019-03-17T02:03:24.952Z,93.40
2019-03-17T02:05:51.756Z,93.30
2019-03-17T02:08:21.431Z,93.50
2019-03-17T02:10:48.243Z,93.30
2019-03-17T02:13:15.128Z,93.20
2019-03-17T02:15:42.033Z,92.50
2019-03-17T02:18:08.840Z,91.90
2019-03-17T02:20:35.641Z,91.50
2019-03-17T02:23:02.554Z,91.50
2019-03-17T02:25:29.441Z,91.50
2019-03-17T02:27:56.365Z,91.60
2019-03-17T02:30:23.266Z,92.30
2019-03-17T02:32:50.258Z,92.30
2019-03-17T02:35:17.258Z,92.80
2019-03-17T02:37:44.061Z,93.00
2019-03-17T02:40:11.087Z,93.00
2019-03-17T02:42:38.045Z,93.10
2019-03-17T02:45:05.825Z,93.00
2019-03-17T02:47:32.725Z,93.00
2019-03-17T02:49:59.515Z,93.10
2019-03-17T02:52:26.418Z,93.20
2019-03-17T02:54:53.505Z,93.30
2019-03-17T02:57:20.488Z,93.50
2019-03-17T02:59:47.431Z,93.50
2019-03-17T03:02:14.407Z,93.40
2019-03-17T03:04:41.297Z,93.40
2019-03-17T03:07:08.115Z,93.40
2019-03-17T03:09:35.038Z,93.10
2019-03-17T03:12:02.027Z,93.10
2019-03-17T03:14:28.941Z,93.10
2019-03-17T03:16:55.856Z,93.30
2019-03-17T03:19:22.841Z,93.40
2019-03-17T03:21:49.619Z,93.60
2019-03-17T03:24:16.430Z,93.80
2019-03-17T03:26:43.328Z,94.00
2019-03-17T03:29:10.347Z,94.00
2019-03-17T03:31:37.342Z,94.20
2019-03-17T03:34:04.526Z,94.50
2019-03-17T03:36:31.433Z,94.60
2019-03-17T03:38:58.356Z,95.00
2019-03-17T03:41:25.247Z,95.30
2019-03-17T03:43:52.250Z,95.50
2019-03-17T03:46:19.250Z,95.80
2019-03-17T03:48:46.252Z,96.00
2019-03-17T03:51:13.239Z,96.20
2019-03-17T03:53:40.217Z,96.50
2019-03-17T03:56:07.232Z,96.50
2019-03-17T03:58:34.227Z,96.30
2019-03-17T04:01:01.227Z,96.20
2019-03-17T04:03:28.314Z,96.00
2019-03-17T04:05:55.325Z,95.60
2019-03-17T04:08:22.322Z,95.50
2019-03-17T04:10:49.235Z,95.20
2019-03-17T04:13:16.127Z,95.00
2019-03-17T04:15:43.246Z,94.50
2019-03-17T04:18:10.337Z,93.20
2019-03-17T04:20:37.463Z,90.90
2019-03-17T04:23:04.458Z,86.70
2019-03-17T04:25:31.354Z,82.40
2019-03-17T04:27:58.136Z,75.80
2019-03-17T04:30:25.059Z,73.60
2019-03-17T04:32:51.851Z,70.00
2019-03-17T04:35:18.754Z,67.30
2019-03-17T04:37:45.552Z,64.60
2019-03-17T04:40:12.549Z,63.00
2019-03-17T04:42:39.354Z,63.20
2019-03-17T04:45:06.385Z,60.90
2019-03-17T04:47:33.282Z,60.60
2019-03-17T04:50:00.344Z,60.00
2019-03-17T04:52:27.301Z,59.50
2019-03-17T04:54:54.217Z,58.80
2019-03-17T04:57:21.196Z,59.30
2019-03-17T04:59:47.986Z,58.90
2019-03-17T05:02:15.144Z,58.40
2019-03-17T05:04:42.118Z,57.70
2019-03-17T05:07:09.025Z,57.70
2019-03-17T05:09:35.932Z,57.40
2019-03-17T05:12:02.814Z,57.60
2019-03-17T05:14:29.617Z,57.80
2019-03-17T05:16:56.402Z,57.80
2019-03-17T05:19:23.390Z,58.20
2019-03-17T05:21:50.289Z,59.00
2019-03-17T05:24:17.078Z,59.70
2019-03-17T05:26:43.978Z,59.70
2019-03-17T05:29:10.783Z,60.20
2019-03-17T05:31:37.557Z,60.40
2019-03-17T05:34:04.658Z,61.40
2019-03-17T05:36:31.450Z,61.50
2019-03-17T05:38:58.254Z,61.90
2019-03-17T05:41:25.151Z,61.50
2019-03-17T05:43:51.925Z,61.50
2019-03-17T05:46:18.719Z,61.60
2019-03-17T05:48:45.601Z,61.00
2019-03-17T05:51:12.520Z,60.40
2019-03-17T05:53:40.485Z,60.50
2019-03-17T05:56:07.706Z,59.70
2019-03-17T05:58:34.593Z,58.80
2019-03-17T06:01:01.378Z,58.80
2019-03-17T06:03:28.269Z,58.30
2019-03-17T06:05:55.052Z,58.00
2019-03-17T06:08:22.044Z,57.30
2019-03-17T06:10:48.932Z,56.30
2019-03-17T06:13:15.940Z,55.70
2019-03-17T06:15:42.848Z,55.10
2019-03-17T06:18:09.755Z,55.00
2019-03-17T06:20:36.737Z,54.20
2019-03-17T06:23:03.736Z,53.70
2019-03-17T06:25:30.661Z,53.20
2019-03-17T06:27:57.558Z,52.90
2019-03-17T06:30:24.442Z,52.80
2019-03-17T06:32:52.036Z,52.10
2019-03-17T06:35:18.944Z,51.80
2019-03-17T06:37:45.845Z,51.50
2019-03-17T06:40:12.847Z,50.90
2019-03-17T06:42:39.735Z,51.10
2019-03-17T06:45:07.470Z,51.90
2019-03-17T06:47:34.362Z,51.60
2019-03-17T06:50:01.355Z,51.30
2019-03-17T06:52:28.265Z,50.00
2019-03-17T06:54:55.059Z,50.40
2019-03-17T06:57:22.053Z,49.90
2019-03-17T06:59:48.865Z,50.20
2019-03-17T07:02:15.837Z,49.10
2019-03-17T07:04:42.949Z,48.20
2019-03-17T07:07:09.978Z,48.20
2019-03-17T07:09:36.880Z,47.40
2019-03-17T07:12:03.874Z,47.60
2019-03-17T07:14:30.696Z,46.60
2019-03-17T07:16:57.498Z,46.40
2019-03-17T07:19:24.504Z,45.90
2019-03-17T07:21:51.521Z,45.20
2019-03-17T07:24:18.367Z,45.30
2019-03-17T07:26:45.321Z,44.80
2019-03-17T07:29:12.105Z,44.10
2019-03-17T07:31:38.896Z,44.30
2019-03-17T07:34:05.933Z,44.40
2019-03-17T07:36:32.917Z,43.20
2019-03-17T07:39:11.238Z,44.30
2019-03-17T07:41:28.766Z,43.00
2019-03-17T07:43:55.660Z,43.10
2019-03-17T07:46:22.537Z,41.90
2019-03-17T07:48:49.485Z,41.60
2019-03-17T07:51:16.365Z,40.50
2019-03-17T07:53:43.256Z,40.00
2019-03-17T07:56:10.035Z,38.70
2019-03-17T07:58:37.044Z,38.70
2019-03-17T08:01:04.050Z,37.20
2019-03-17T08:03:32.174Z,37.80
2019-03-17T08:05:58.967Z,36.80
2019-03-17T08:08:25.908Z,37.00
2019-03-17T08:10:52.949Z,36.10
2019-03-17T08:13:19.853Z,36.20
2019-03-17T08:15:46.759Z,36.90
2019-03-17T08:18:13.667Z,36.60
2019-03-17T08:20:40.569Z,35.90
2019-03-17T08:23:07.516Z,35.80
2019-03-17T08:25:34.495Z,36.50
2019-03-17T08:28:01.378Z,36.20
2019-03-17T08:30:28.364Z,34.70
2019-03-17T08:32:55.240Z,34.40
2019-03-17T08:35:22.240Z,35.00
2019-03-17T08:37:49.144Z,33.40
2019-03-17T08:40:16.029Z,33.90
2019-03-17T08:42:42.939Z,33.60
2019-03-17T08:45:10.149Z,34.10
2019-03-17T08:47:37.061Z,33.50
2019-03-17T08:50:04.453Z,34.40
2019-03-17T08:52:34.230Z,34.00
2019-03-17T08:55:00.042Z,33.50
2019-03-17T08:57:26.915Z,32.20
2019-03-17T08:59:53.721Z,32.90
2019-03-17T09:02:20.615Z,33.50
2019-03-17T09:04:47.501Z,33.90
2019-03-17T09:07:14.373Z,33.40
2019-03-17T09:09:41.273Z,32.70
2019-03-17T09:12:08.254Z,33.00
2019-03-17T09:14:35.152Z,32.00
2019-03-17T09:17:13.712Z,30.40
2019-03-17T09:19:30.933Z,32.10
2019-03-17T09:21:57.902Z,32.50
2019-03-17T09:24:24.727Z,32.20
2019-03-17T09:26:51.508Z,31.80
2019-03-17T09:29:18.397Z,32.60
2019-03-17T09:31:45.278Z,32.70
2019-03-17T09:34:12.171Z,30.50
2019-03-17T09:36:39.141Z,31.20
2019-03-17T09:39:06.240Z,30.50
2019-03-17T09:41:33.037Z,32.30
2019-03-17T09:43:59.913Z,32.60
2019-03-17T09:46:26.885Z,30.90
2019-03-17T09:48:53.779Z,32.00
2019-03-17T09:51:20.655Z,31.60
2019-03-17T09:53:47.547Z,30.40
2019-03-17T09:56:14.440Z,31.70
2019-03-17T09:58:41.205Z,32.10
2019-03-17T10:01:08.094Z,32.30
2019-03-17T10:03:34.877Z,31.60
2019-03-17T10:06:01.637Z,30.70
2019-03-17T10:08:28.532Z,30.00
2019-03-17T10:10:55.417Z,30.90
2019-03-17T10:13:22.306Z,31.20
2019-03-17T10:15:49.077Z,31.10
2019-03-17T10:18:15.888Z,31.10
2019-03-17T10:20:42.782Z,30.20
2019-03-17T10:23:09.685Z,30.00
2019-03-17T10:25:36.673Z,31.20
2019-03-17T10:28:03.644Z,31.90
2019-03-17T10:30:30.532Z,30.70
2019-03-17T10:32:57.313Z,30.00
2019-03-17T10:35:24.307Z,29.10
2019-03-17T10:37:51.185Z,28.60
2019-03-17T10:40:18.179Z,29.30
2019-03-17T10:42:45.177Z,28.20
2019-03-17T10:45:12.489Z,28.80
2019-03-17T10:47:39.366Z,29.60
2019-03-17T10:50:08.744Z,29.40
2019-03-17T10:52:35.719Z,29.60
2019-03-17T10:55:03.219Z,30.80
2019-03-17T10:57:30.090Z,30.00
2019-03-17T10:59:56.866Z,29.20
2019-03-17T11:02:23.759Z,30.00
2019-03-17T11:04:50.679Z,29.30
2019-03-17T11:07:17.533Z,29.30
2019-03-17T11:09:44.325Z,28.80
2019-03-17T11:12:11.097Z,30.40
2019-03-17T11:14:37.974Z,31.30
2019-03-17T11:17:04.965Z,32.00
2019-03-17T11:19:31.744Z,33.20
2019-03-17T11:21:58.625Z,34.30
2019-03-17T11:24:25.409Z,34.20
2019-03-17T11:26:52.401Z,35.60
2019-03-17T11:29:19.299Z,35.30
2019-03-17T11:31:46.283Z,33.70
2019-03-17T11:34:13.069Z,32.10
2019-03-17T11:36:39.949Z,32.00
2019-03-17T11:39:07.025Z,31.90
2019-03-17T11:41:33.925Z,31.90
2019-03-17T11:44:00.797Z,33.70
2019-03-17T11:46:27.689Z,34.60
2019-03-17T11:48:54.574Z,35.50
2019-03-17T11:51:21.574Z,36.30
2019-03-17T11:53:48.554Z,39.50
2019-03-17T11:56:15.565Z,39.40
2019-03-17T11:58:42.348Z,39.20
2019-03-17T12:01:09.299Z,40.60
2019-03-17T12:03:36.245Z,42.70
2019-03-17T12:06:03.244Z,42.20
2019-03-17T12:08:30.225Z,42.20
2019-03-17T12:10:57.147Z,43.10
2019-03-17T12:13:24.152Z,43.50
2019-03-17T12:15:51.037Z,41.50
2019-03-17T12:18:18.057Z,41.50
2019-03-17T12:20:44.949Z,43.20
2019-03-17T12:23:11.945Z,44.10
2019-03-17T12:25:38.829Z,45.30
2019-03-17T12:28:05.819Z,46.30
2019-03-17T12:30:32.706Z,48.10
2019-03-17T12:32:59.607Z,49.00
2019-03-17T12:35:26.630Z,49.30
2019-03-17T12:37:53.631Z,50.70
2019-03-17T12:40:20.614Z,50.80
2019-03-17T12:42:47.605Z,51.70
2019-03-17T12:45:14.601Z,53.90
2019-03-17T12:47:41.507Z,53.60
2019-03-17T12:50:09.441Z,54.40
2019-03-17T12:52:36.480Z,55.10
2019-03-17T12:55:04.510Z,55.80
2019-03-17T12:57:31.311Z,56.60
2019-03-17T12:59:58.770Z,57.40
2019-03-17T13:02:25.653Z,57.30
2019-03-17T13:04:52.542Z,57.10
2019-03-17T13:07:19.385Z,57.70
2019-03-17T13:09:46.161Z,58.40
2019-03-17T13:12:13.075Z,58.90
2019-03-17T13:14:39.978Z,59.30
2019-03-17T13:17:06.866Z,59.30
2019-03-17T13:19:33.777Z,59.90
2019-03-17T13:22:00.669Z,66.80
2019-03-17T13:24:27.449Z,73.90
2019-03-17T13:26:54.237Z,81.80
2019-03-17T13:29:21.129Z,90.10
2019-03-17T13:31:47.922Z,92.70
2019-03-17T13:34:14.831Z,95.70
2019-03-17T13:36:41.905Z,96.80
2019-03-17T13:39:08.815Z,99.10
2019-03-17T13:41:35.834Z,99.90
2019-03-17T13:44:02.811Z,99.90
2019-03-17T13:46:29.682Z,99.90
2019-03-17T13:48:56.495Z,99.90
2019-03-17T13:51:23.386Z,99.90
2019-03-17T13:53:56.343Z,99.90
2019-03-17T13:56:22.461Z,99.90
2019-03-17T13:58:49.365Z,99.90
2019-03-17T14:01:16.355Z,99.90
2019-03-17T14:03:43.160Z,99.90
2019-03-17T14:06:10.056Z,99.90
2019-03-17T14:08:37.062Z,99.90
2019-03-17T14:11:04.068Z,99.90
2019-03-17T14:13:31.077Z,99.90
2019-03-17T14:15:57.974Z,99.90
2019-03-17T14:18:24.792Z,99.90
2019-03-17T14:20:51.618Z,99.90
2019-03-17T14:23:18.531Z,99.90
2019-03-17T14:25:45.425Z,99.90
2019-03-17T14:28:12.444Z,99.90
2019-03-17T14:30:39.264Z,99.90
2019-03-17T14:33:06.161Z,99.90
2019-03-17T14:35:33.161Z,99.90
2019-03-17T14:38:00.058Z,99.90
2019-03-17T14:40:30.406Z,99.90
2019-03-17T14:42:57.346Z,99.90
2019-03-17T14:45:24.409Z,99.90
2019-03-17T14:47:51.418Z,99.90
2019-03-17T14:50:18.718Z,99.90
2019-03-17T14:52:45.717Z,99.90
2019-03-17T14:55:13.017Z,99.90
2019-03-17T14:57:39.929Z,99.90
2019-03-17T15:00:10.174Z,99.90
2019-03-17T15:02:37.090Z,99.90
2019-03-17T15:05:04.325Z,99.90
2019-03-17T15:07:31.232Z,99.90
2019-03-17T15:09:58.030Z,99.90
2019-03-17T15:12:24.934Z,99.90
2019-03-17T15:14:51.961Z,99.80
2019-03-17T15:17:18.751Z,99.90
2019-03-17T15:19:45.649Z,99.50
2019-03-17T15:22:12.636Z,99.90
2019-03-17T15:24:39.637Z,99.80
2019-03-17T15:27:06.535Z,98.80
2019-03-17T15:29:33.364Z,99.10
2019-03-17T15:32:00.164Z,98.80
2019-03-17T15:34:26.962Z,98.60
2019-03-17T15:36:53.945Z,99.60
2019-03-17T15:39:20.762Z,98.50
2019-03-17T15:41:47.771Z,98.30
2019-03-17T15:44:14.558Z,98.50
2019-03-17T15:46:41.565Z,98.70
2019-03-17T15:49:08.365Z,98.20
2019-03-17T15:51:35.289Z,98.50
2019-03-17T15:54:02.079Z,98.30
2019-03-17T15:56:29.112Z,98.40
2019-03-17T15:58:56.024Z,98.00
2019-03-17T16:01:22.942Z,97.70
2019-03-17T16:03:49.954Z,97.40
2019-03-17T16:06:18.853Z,97.30
2019-03-17T16:08:45.595Z,97.40
2019-03-17T16:11:12.648Z,97.20
2019-03-17T16:13:39.454Z,97.50
2019-03-17T16:16:06.352Z,97.60
2019-03-17T16:18:33.241Z,97.20
2019-03-17T16:21:00.063Z,97.10
2019-03-17T16:23:26.957Z,97.10
2019-03-17T16:25:54.015Z,97.30
2019-03-17T16:28:21.046Z,97.10
2019-03-17T16:30:48.042Z,97.20
2019-03-17T16:33:15.048Z,97.20
2019-03-17T16:35:42.036Z,97.10
2019-03-17T16:38:09.038Z,97.30
2019-03-17T16:40:35.935Z,97.50
2019-03-17T16:43:03.466Z,97.80
2019-03-17T16:45:30.469Z,97.90
2019-03-17T16:47:57.484Z,97.70
2019-03-17T16:50:24.492Z,97.70
2019-03-17T16:52:51.499Z,98.20
2019-03-17T16:55:18.592Z,98.10
2019-03-17T16:57:45.585Z,98.30
2019-03-17T17:00:14.812Z,98.40
2019-03-17T17:02:41.808Z,98.70
2019-03-17T17:05:08.982Z,99.10
2019-03-17T17:07:35.984Z,99.50
2019-03-17T17:10:03.712Z,99.90
2019-03-17T17:12:30.551Z,99.90
2019-03-17T17:14:57.436Z,99.90
2019-03-17T17:17:24.325Z,99.90
2019-03-17T17:19:51.252Z,99.90
2019-03-17T17:22:18.148Z,99.90
2019-03-17T17:24:45.056Z,99.90
2019-03-17T17:27:11.980Z,99.90
2019-03-17T17:29:38.998Z,99.90
2019-03-17T17:32:06.090Z,99.90
2019-03-17T17:34:32.984Z,99.90
2019-03-17T17:37:00.135Z,99.90
2019-03-17T17:39:27.072Z,99.90
2019-03-17T17:41:53.985Z,99.90
2019-03-17T17:44:20.861Z,99.90
2019-03-17T17:46:47.678Z,99.90
2019-03-17T17:49:14.694Z,99.90
2019-03-17T17:51:41.693Z,99.90
2019-03-17T17:54:08.708Z,99.90
2019-03-17T17:56:35.482Z,99.90
2019-03-17T17:59:02.517Z,99.90
2019-03-17T18:01:29.293Z,99.90
2019-03-17T18:03:56.205Z,99.90
2019-03-17T18:06:22.981Z,99.90
2019-03-17T18:08:50.037Z,99.90
2019-03-17T18:11:16.872Z,99.90
2019-03-17T18:13:43.682Z,99.90
2019-03-17T18:16:10.561Z,99.90
2019-03-17T18:18:37.373Z,99.90
2019-03-17T18:21:04.352Z,99.90
2019-03-17T18:23:31.343Z,99.90
2019-03-17T18:25:58.154Z,99.90
2019-03-17T18:28:25.049Z,99.90
2019-03-17T18:30:51.956Z,99.90
2019-03-17T18:33:18.743Z,99.90
2019-03-17T18:35:45.648Z,99.90
2019-03-17T18:38:12.531Z,99.90
2019-03-17T18:40:42.181Z,99.90
2019-03-17T18:43:08.209Z,99.90
2019-03-17T18:45:35.124Z,99.90
2019-03-17T18:48:02.006Z,99.90
2019-03-17T18:50:28.796Z,99.90
2019-03-17T18:52:55.692Z,99.90
2019-03-17T18:55:22.698Z,99.80
2019-03-17T18:57:49.689Z,99.60
2019-03-17T19:00:16.696Z,99.20
2019-03-17T19:02:43.616Z,99.30
2019-03-17T19:05:10.897Z,99.40
2019-03-17T19:07:37.701Z,98.50
2019-03-17T19:10:04.876Z,98.10
2019-03-17T19:12:31.691Z,98.50
2019-03-17T19:14:58.588Z,97.80
2019-03-17T19:17:25.514Z,98.00
2019-03-17T19:19:52.414Z,97.90
2019-03-17T19:22:19.185Z,97.50
2019-03-17T19:24:46.081Z,97.80
2019-03-17T19:27:13.072Z,97.70
2019-03-17T19:29:40.150Z,97.10
2019-03-17T19:32:07.036Z,97.30
2019-03-17T19:34:34.080Z,97.80
2019-03-17T19:37:01.123Z,98.00
2019-03-17T19:39:28.103Z,97.40
2019-03-17T19:41:54.977Z,97.30
2019-03-17T19:44:21.823Z,97.40
2019-03-17T19:46:48.608Z,97.30
2019-03-17T19:49:15.497Z,97.40
2019-03-17T19:51:42.389Z,97.60
2019-03-17T19:54:09.387Z,97.50
2019-03-17T19:56:36.197Z,98.00
2019-03-17T19:59:03.234Z,98.50
2019-03-17T20:01:30.039Z,98.20
2019-03-17T20:03:56.825Z,98.20
2019-03-17T20:06:23.645Z,98.30
2019-03-17T20:08:50.443Z,98.20
2019-03-17T20:11:17.269Z,98.10
2019-03-17T20:13:44.068Z,98.30
2019-03-17T20:16:10.890Z,98.40
2019-03-17T20:18:37.682Z,98.50
2019-03-17T20:21:04.580Z,98.70
2019-03-17T20:23:31.370Z,98.80
2019-03-17T20:25:58.286Z,98.90
2019-03-17T20:28:25.196Z,98.90
2019-03-17T20:30:52.025Z,99.00
2019-03-17T20:33:19.039Z,98.90
2019-03-17T20:35:46.037Z,98.80
2019-03-17T20:38:13.055Z,97.60
2019-03-17T20:40:39.854Z,97.40
2019-03-17T20:43:18.681Z,97.60
2019-03-17T20:45:35.501Z,97.20
2019-03-17T20:48:02.565Z,96.10
2019-03-17T20:50:29.504Z,96.60
2019-03-17T20:52:56.312Z,96.10
2019-03-17T20:55:23.232Z,96.00
2019-03-17T20:57:50.276Z,95.80
2019-03-17T21:00:17.168Z,95.40
2019-03-17T21:02:44.465Z,95.00
2019-03-17T21:05:11.901Z,95.00
2019-03-17T21:07:39.000Z,95.10
2019-03-17T21:10:07.725Z,95.70
2019-03-17T21:12:34.629Z,95.50
2019-03-17T21:15:01.636Z,95.80
2019-03-17T21:17:28.417Z,95.60
2019-03-17T21:19:55.217Z,96.00
2019-03-17T21:22:22.135Z,95.80
2019-03-17T21:24:49.032Z,96.10
2019-03-17T21:27:16.028Z,96.30
2019-03-17T21:29:42.844Z,96.40
2019-03-17T21:32:09.767Z,96.70
2019-03-17T21:34:36.553Z,97.00
2019-03-17T21:37:03.554Z,97.00
2019-03-17T21:39:30.348Z,97.10
2019-03-17T21:41:57.262Z,97.20
2019-03-17T21:44:24.071Z,97.30
2019-03-17T21:46:51.078Z,97.30
2019-03-17T21:49:17.974Z,97.20
2019-03-17T21:51:44.965Z,97.30
2019-03-17T21:54:11.784Z,97.40
2019-03-17T21:56:38.696Z,97.50
2019-03-17T21:59:05.593Z,97.30
2019-03-17T22:01:32.417Z,97.30
2019-03-17T22:03:59.504Z,97.30
2019-03-17T22:06:26.676Z,97.30
2019-03-17T22:08:53.769Z,97.30
2019-03-17T22:11:20.888Z,97.10
2019-03-17T22:13:47.665Z,97.30
2019-03-17T22:16:14.750Z,97.30
2019-03-17T22:18:41.798Z,97.30
2019-03-17T22:21:08.854Z,97.40
2019-03-17T22:23:35.912Z,97.50
2019-03-17T22:26:03.864Z,97.40
2019-03-17T22:28:30.737Z,97.50
2019-03-17T22:30:57.588Z,97.60
2019-03-17T22:33:24.535Z,97.80
2019-03-17T22:35:51.350Z,97.70
2019-03-17T22:38:18.397Z,97.90
2019-03-17T22:40:45.587Z,97.50
2019-03-17T22:43:12.789Z,97.40
2019-03-17T22:45:39.871Z,97.30
2019-03-17T22:48:06.849Z,97.40
2019-03-17T22:50:33.655Z,97.50
2019-03-17T22:53:00.449Z,97.40
2019-03-17T22:55:27.274Z,97.50
2019-03-17T22:57:54.069Z,97.70
2019-03-17T23:00:30.433Z,97.80
2019-03-17T23:02:57.314Z,97.90
2019-03-17T23:05:24.607Z,97.80
2019-03-17T23:07:51.492Z,97.70
2019-03-17T23:10:18.393Z,97.80
2019-03-17T23:12:45.183Z,97.80
2019-03-17T23:15:12.405Z,97.70
2019-03-17T23:17:39.405Z,97.60
2019-03-17T23:20:07.522Z,97.50
2019-03-17T23:22:34.406Z,97.70
2019-03-17T23:25:01.405Z,97.60
2019-03-17T23:27:28.293Z,97.90
2019-03-17T23:29:55.295Z,97.90
2019-03-17T23:32:22.183Z,97.80
2019-03-17T23:34:48.987Z,97.80
2019-03-17T23:37:15.870Z,97.90
2019-03-17T23:39:42.678Z,98.10
2019-03-17T23:42:09.561Z,98.50
2019-03-17T23:44:48.260Z,99.20
2019-03-17T23:47:05.093Z,99.70
2019-03-17T23:49:31.990Z,99.90
2019-03-17T23:51:58.876Z,99.90
2019-03-17T23:54:26.610Z,99.90
2019-03-17T23:56:53.534Z,99.90
2019-03-17T23:59:20.535Z,99.90
